Airport ICAO


18:19 UTC

11°C

Overcast


An affordable passengers' Moving Map for your aircraft. Made for the iPad and the iPhone
More information here

LFPB Le Bourget


Paris FRANCE   VFR


METAR LFPB 231800Z AUTO 04009KT 9000 OVC030 11/05 Q1029 NOSIG 0h19min

TAF LFPB 231700Z 2318/2418 02006KT 8000 BKN030 BECMG 2400/2402 3000 BR BKN003 PROB40 TEMPO 2402/2405 0600 BCFG BKN002 BECMG 2406/2408 6000 NSW BKN006 BECMG 2408/2410 BKN020 1h19min





NOTAMS

OPEN